Time;durP1;ratioP1;P1;durP2;ratioP2;P2;SDS_P1;SDS_P2;PMS_P1;PMS_P2;Temp;Humidity;BMP_temperature;BMP_pressure;BME280_temperature;BME280_humidity;BME280_pressure;Samples;Min_cycle;Max_cycle;Signal;HPM_P1;HPM_P2
2024/03/15 00:00:24;;;;;;;4.10;2.60;;;;;;;8.70;100.00;98421.72;5098979;28;22267;-77
2024/03/15 00:02:49;;;;;;;4.72;2.60;;;;;;;8.63;100.00;98422.69;5081909;28;20051;-77
2024/03/15 00:05:15;;;;;;;7.10;2.78;;;;;;;8.60;100.00;98417.72;5077307;28;20019;-77
2024/03/15 00:07:40;;;;;;;5.93;2.85;;;;;;;8.58;100.00;98422.47;5097186;28;20035;-78
2024/03/15 00:10:06;;;;;;;6.35;2.83;;;;;;;8.58;100.00;98417.06;5096701;28;20372;-78
2024/03/15 00:12:33;;;;;;;5.47;2.90;;;;;;;8.48;100.00;98414.75;5097923;28;20028;-78
2024/03/15 00:14:58;;;;;;;4.75;2.97;;;;;;;8.48;100.00;98420.97;5077964;28;20019;-78
2024/03/15 00:17:24;;;;;;;5.72;3.28;;;;;;;8.38;100.00;98425.84;5095345;28;20087;-78
2024/03/15 00:19:49;;;;;;;5.55;3.45;;;;;;;8.33;100.00;98422.91;5100011;28;20028;-78
2024/03/15 00:22:14;;;;;;;6.95;3.60;;;;;;;8.19;100.00;98419.31;5072411;28;20320;-78
2024/03/15 00:24:39;;;;;;;7.68;3.55;;;;;;;8.09;100.00;98416.94;5097147;28;20050;-78
2024/03/15 00:27:05;;;;;;;7.32;3.53;;;;;;;8.07;100.00;98419.03;5079906;28;20036;-78
2024/03/15 00:29:31;;;;;;;9.00;3.05;;;;;;;8.09;100.00;98441.19;5099376;28;20020;-78
2024/03/15 00:31:59;;;;;;;7.30;2.85;;;;;;;7.93;100.00;98405.66;5081085;28;20023;-78
2024/03/15 00:34:24;;;;;;;5.40;3.10;;;;;;;8.00;100.00;98415.47;5072681;28;20048;-78
2024/03/15 00:36:50;;;;;;;7.22;2.90;;;;;;;7.92;100.00;98412.91;5099155;28;20262;-79
2024/03/15 00:39:15;;;;;;;4.88;2.47;;;;;;;8.05;100.00;98428.34;5096566;28;20357;-78
2024/03/15 00:41:42;;;;;;;7.97;2.95;;;;;;;8.07;100.00;98416.34;5085805;28;20012;-78
2024/03/15 00:44:07;;;;;;;11.50;3.10;;;;;;;8.13;100.00;98426.31;5081607;28;20020;-78
2024/03/15 00:46:33;;;;;;;5.85;2.92;;;;;;;8.01;100.00;98406.34;5077784;28;20020;-78
2024/03/15 00:48:58;;;;;;;5.88;3.13;;;;;;;8.07;100.00;98415.50;5096898;28;20058;-78
2024/03/15 00:51:23;;;;;;;5.22;2.70;;;;;;;8.17;100.00;98415.16;5099059;28;20027;-78
2024/03/15 00:53:50;;;;;;;5.35;3.20;;;;;;;8.13;100.00;98417.41;5100758;28;20031;-78
2024/03/15 00:56:16;;;;;;;5.38;2.97;;;;;;;8.11;100.00;98414.06;5094929;28;20144;-78
2024/03/15 00:58:41;;;;;;;6.05;3.10;;;;;;;7.82;100.00;98374.72;5095232;28;20016;-78
2024/03/15 01:01:06;;;;;;;5.75;2.67;;;;;;;8.10;100.00;98420.50;5103083;28;20023;-78
2024/03/15 01:03:32;;;;;;;5.15;2.67;;;;;;;8.03;100.00;98412.38;5082397;28;20103;-78
2024/03/15 01:05:58;;;;;;;3.53;2.38;;;;;;;7.93;100.00;98405.66;5077601;28;20040;-78
2024/03/15 01:08:24;;;;;;;9.65;3.75;;;;;;;7.95;100.00;98419.78;5103078;28;20061;-78
2024/03/15 01:10:49;;;;;;;5.45;2.65;;;;;;;7.98;100.00;98412.13;5072748;28;20099;-78
2024/03/15 01:13:15;;;;;;;4.25;2.75;;;;;;;8.09;100.00;98408.88;5070885;28;20020;-78
2024/03/15 01:15:45;;;;;;;6.80;3.03;;;;;;;8.07;100.00;98416.34;5077517;28;20251;-78
2024/03/15 01:18:11;;;;;;;4.63;2.42;;;;;;;7.90;100.00;98404.19;5084845;28;20091;-78
2024/03/15 01:20:36;;;;;;;5.97;3.22;;;;;;;7.96;100.00;98411.47;5080926;28;20015;-78
2024/03/15 01:23:02;;;;;;;7.75;3.10;;;;;;;7.66;100.00;98381.22;5068665;28;20211;-78
2024/03/15 01:25:31;;;;;;;4.75;2.88;;;;;;;7.91;100.00;98427.38;5075646;28;20098;-78
2024/03/15 01:27:59;;;;;;;4.95;3.00;;;;;;;7.74;100.00;98405.31;5081498;28;20031;-78
2024/03/15 01:30:24;;;;;;;5.32;2.90;;;;;;;7.73;100.00;98408.19;5078693;28;20370;-78
2024/03/15 01:32:50;;;;;;;6.35;3.50;;;;;;;7.76;100.00;98407.81;5077467;28;20067;-78
2024/03/15 01:35:16;;;;;;;5.75;2.88;;;;;;;7.75;100.00;98404.28;5073972;28;20212;-78
2024/03/15 01:37:42;;;;;;;5.18;2.97;;;;;;;7.72;100.00;98396.59;5079557;28;20100;-78
2024/03/15 01:40:09;;;;;;;5.78;3.22;;;;;;;7.73;100.00;98386.66;5076381;28;20319;-78
2024/03/15 01:42:35;;;;;;;5.82;2.85;;;;;;;7.76;100.00;98405.97;5081420;28;20016;-78
2024/03/15 01:45:00;;;;;;;8.07;3.13;;;;;;;7.80;100.00;98387.53;5083608;28;20058;-78
2024/03/15 01:47:27;;;;;;;4.95;3.40;;;;;;;7.95;100.00;98396.34;5076754;28;20337;-78
2024/03/15 01:49:54;;;;;;;5.97;3.38;;;;;;;7.92;100.00;98388.66;5077479;28;20027;-78
2024/03/15 01:52:24;;;;;;;5.22;3.10;;;;;;;8.08;100.00;98385.66;5075805;28;20109;-78
2024/03/15 01:54:51;;;;;;;7.82;4.75;;;;;;;8.23;100.00;98396.34;5075330;28;20062;-78
2024/03/15 01:57:20;;;;;;;5.75;3.33;;;;;;;8.11;100.00;98396.03;5077359;28;20039;-79
2024/03/15 01:59:46;;;;;;;4.53;2.85;;;;;;;8.08;100.00;98398.31;5077573;28;20070;-78
2024/03/15 02:02:15;;;;;;;5.05;2.58;;;;;;;8.07;100.00;98389.41;5078808;28;20095;-78
2024/03/15 02:04:41;;;;;;;7.13;2.90;;;;;;;8.08;100.00;98377.59;5075558;28;20024;-78
2024/03/15 02:07:08;;;;;;;7.38;3.17;;;;;;;8.03;100.00;98365.75;5077882;28;20059;-78
2024/03/15 02:09:34;;;;;;;5.10;2.88;;;;;;;8.10;100.00;98388.19;5075515;28;20065;-78
2024/03/15 02:11:59;;;;;;;7.00;3.10;;;;;;;8.11;100.00;98389.81;5078594;28;20020;-78
2024/03/15 02:14:25;;;;;;;6.43;2.72;;;;;;;7.99;100.00;98384.16;5094210;28;20028;-78
2024/03/15 02:16:53;;;;;;;10.57;3.53;;;;;;;7.86;100.00;98387.59;5078460;28;20338;-78
2024/03/15 02:19:19;;;;;;;5.75;3.28;;;;;;;7.84;100.00;98383.44;5083191;28;20035;-78
2024/03/15 02:21:50;;;;;;;8.80;3.17;;;;;;;7.68;100.00;98385.38;5081090;28;20083;-78
2024/03/15 02:24:15;;;;;;;4.88;2.97;;;;;;;7.56;100.00;98365.41;5077404;28;20012;-78
2024/03/15 02:26:42;;;;;;;5.65;3.20;;;;;;;7.59;100.00;98383.03;5080360;28;20118;-78
2024/03/15 02:29:08;;;;;;;3.90;2.88;;;;;;;7.49;100.00;98371.75;5080046;28;20559;-78
2024/03/15 02:31:33;;;;;;;5.88;3.35;;;;;;;7.49;100.00;98372.56;5075936;28;20028;-78
2024/03/15 02:34:00;;;;;;;4.68;2.88;;;;;;;7.53;100.00;98391.88;5071840;28;20024;-78
2024/03/15 02:36:25;;;;;;;8.10;3.17;;;;;;;7.47;100.00;98388.13;5075812;28;20031;-78
2024/03/15 02:38:51;;;;;;;5.57;2.92;;;;;;;7.50;100.00;98398.50;5076027;28;20040;-78
2024/03/15 02:41:16;;;;;;;5.63;3.30;;;;;;;7.42;100.00;98387.84;5081173;28;20019;-78
2024/03/15 02:43:42;;;;;;;4.53;3.10;;;;;;;7.31;100.00;98388.34;5085114;28;20027;-78
2024/03/15 02:46:08;;;;;;;6.15;2.80;;;;;;;7.23;100.00;98384.78;5082183;28;20334;-78
2024/03/15 02:48:38;;;;;;;7.05;3.22;;;;;;;7.30;100.00;98389.41;5079386;28;20051;-78
2024/03/15 02:51:04;;;;;;;7.43;3.38;;;;;;;7.34;100.00;98396.91;5080793;28;20020;-78
2024/03/15 02:53:30;;;;;;;4.43;3.10;;;;;;;7.39;100.00;98396.31;5080860;28;20012;-78
2024/03/15 02:55:56;;;;;;;6.40;3.20;;;;;;;7.33;100.00;98386.31;5080126;28;20024;-78
2024/03/15 02:58:21;;;;;;;6.13;2.95;;;;;;;7.18;100.00;98403.38;5078488;28;20027;-78
2024/03/15 03:00:46;;;;;;;4.55;2.95;;;;;;;7.08;100.00;98394.78;5081372;28;20319;-78
2024/03/15 03:03:12;;;;;;;6.10;3.05;;;;;;;7.18;100.00;98414.13;5078655;28;20024;-78
2024/03/15 03:05:39;;;;;;;9.13;3.58;;;;;;;7.20;100.00;98382.50;5081433;28;20012;-78
2024/03/15 03:08:04;;;;;;;4.25;3.10;;;;;;;7.29;100.00;98410.09;5085866;28;20108;-78
2024/03/15 03:10:30;;;;;;;7.47;3.05;;;;;;;7.13;100.00;98397.72;5073585;28;20059;-78
2024/03/15 03:12:55;;;;;;;4.75;3.10;;;;;;;7.12;100.00;98406.81;5082633;28;20220;-78
2024/03/15 03:15:20;;;;;;;5.85;3.55;;;;;;;7.16;100.00;98404.59;5078132;28;20025;-78
2024/03/15 03:17:46;;;;;;;7.15;3.22;;;;;;;7.11;100.00;98399.78;5099906;28;20038;-78
2024/03/15 03:20:18;;;;;;;9.80;3.40;;;;;;;7.28;100.00;98415.66;5083363;28;20020;-78
2024/03/15 03:22:43;;;;;;;9.63;3.80;;;;;;;7.38;100.00;98414.31;5075801;28;20023;-78
2024/03/15 03:25:10;;;;;;;6.53;3.17;;;;;;;7.43;100.00;98406.50;5072856;28;20025;-78
2024/03/15 03:27:35;;;;;;;7.28;3.30;;;;;;;7.36;100.00;98411.00;5084552;28;20024;-78
2024/03/15 03:30:01;;;;;;;7.82;3.40;;;;;;;7.23;100.00;98413.53;5082695;28;20031;-78
2024/03/15 03:32:27;;;;;;;5.45;2.90;;;;;;;7.02;100.00;98408.97;5079024;28;20290;-78
2024/03/15 03:34:52;;;;;;;7.88;2.90;;;;;;;6.94;100.00;98406.41;5076964;28;20031;-78
2024/03/15 03:37:19;;;;;;;15.85;3.72;;;;;;;6.99;100.00;98412.03;5078118;28;20065;-78
2024/03/15 03:39:44;;;;;;;6.00;3.13;;;;;;;6.99;100.00;98418.25;5080545;28;20099;-78
2024/03/15 03:42:11;;;;;;;8.15;3.30;;;;;;;6.93;100.00;98410.94;5076450;28;20028;-78
2024/03/15 03:44:37;;;;;;;4.32;3.15;;;;;;;6.83;100.00;98418.47;5082545;28;20196;-78
2024/03/15 03:47:03;;;;;;;5.43;3.22;;;;;;;6.80;100.00;98414.31;5083084;28;20030;-78
2024/03/15 03:49:28;;;;;;;6.18;3.20;;;;;;;6.83;100.00;98423.84;5080496;28;20093;-78
2024/03/15 03:51:53;;;;;;;7.10;3.25;;;;;;;6.93;100.00;98413.63;5085279;28;20044;-78
2024/03/15 03:54:19;;;;;;;8.10;3.10;;;;;;;7.13;100.00;98418.41;5083348;28;20305;-78
2024/03/15 03:56:45;;;;;;;6.43;3.42;;;;;;;7.29;100.00;98420.03;5080099;28;20090;-79
2024/03/15 03:59:10;;;;;;;5.40;3.40;;;;;;;7.31;100.00;98404.50;5081408;28;20026;-78
2024/03/15 04:01:35;;;;;;;5.53;3.05;;;;;;;7.50;100.00;98414.63;5082307;28;20016;-78
2024/03/15 04:04:01;;;;;;;6.60;2.97;;;;;;;7.52;100.00;98417.97;5083701;28;20051;-79
2024/03/15 04:06:27;;;;;;;4.80;2.83;;;;;;;7.47;100.00;98415.03;5075692;28;20028;-78
2024/03/15 04:08:52;;;;;;;4.43;2.63;;;;;;;7.42;100.00;98430.94;5083406;28;20077;-78
2024/03/15 04:11:18;;;;;;;4.05;2.50;;;;;;;7.32;100.00;98407.00;5088349;28;20035;-82
2024/03/15 04:13:44;;;;;;;8.52;2.72;;;;;;;7.46;100.00;98413.34;5100385;28;20031;-84
2024/03/15 04:16:10;;;;;;;7.00;2.85;;;;;;;7.55;100.00;98403.31;5098853;28;20062;-84
2024/03/15 04:18:35;;;;;;;8.00;3.30;;;;;;;7.85;100.00;98412.84;5095085;28;20025;-84
2024/03/15 04:21:00;;;;;;;8.68;2.70;;;;;;;8.15;100.00;98406.41;5075804;28;20034;-83
2024/03/15 04:23:26;;;;;;;8.30;2.78;;;;;;;8.35;100.00;98402.00;5079076;28;20343;-83
2024/03/15 04:25:52;;;;;;;3.63;2.55;;;;;;;8.51;100.00;98404.41;5084595;28;20319;-79
2024/03/15 04:28:21;;;;;;;5.28;2.55;;;;;;;8.72;100.00;98397.22;5077978;28;20092;-79
2024/03/15 04:30:46;;;;;;;5.32;2.20;;;;;;;8.87;100.00;98394.38;5074266;28;20046;-81
2024/03/15 04:33:12;;;;;;;4.57;2.30;;;;;;;8.85;100.00;98391.03;5077771;28;20036;-81
2024/03/15 04:35:37;;;;;;;3.92;2.38;;;;;;;8.73;100.00;98378.16;5080857;28;20019;-82
2024/03/15 04:38:03;;;;;;;4.10;2.40;;;;;;;8.70;100.00;98388.50;5079807;28;20123;-81
2024/03/15 04:40:30;;;;;;;6.47;2.80;;;;;;;8.70;100.00;98399.31;5079748;28;20250;-80
2024/03/15 04:42:56;;;;;;;7.18;2.65;;;;;;;8.60;100.00;98398.84;5078187;28;20603;-82
2024/03/15 04:45:22;;;;;;;3.88;2.10;;;;;;;8.55;100.00;98394.03;5074255;28;20019;-81
2024/03/15 04:47:48;;;;;;;12.43;2.30;;;;;;;8.59;100.00;98391.75;5085664;28;20031;-81
2024/03/15 04:50:15;;;;;;;2.83;1.92;;;;;;;8.54;100.00;98419.31;5079298;28;20100;-80
2024/03/15 04:52:42;;;;;;;4.70;2.30;;;;;;;8.41;100.00;98411.16;5071771;28;20020;-80
2024/03/15 04:55:11;;;;;;;4.57;2.40;;;;;;;8.22;100.00;98383.88;5077526;28;20020;-84
2024/03/15 04:57:38;;;;;;;3.88;2.13;;;;;;;8.35;100.00;98413.59;5077910;28;20073;-80
2024/03/15 05:00:19;;;;;;;4.22;2.17;;;;;;;8.42;100.00;98408.28;5076163;28;20024;-85
2024/03/15 05:02:48;;;;;;;3.70;2.17;;;;;;;8.50;100.00;98409.97;5077792;28;20040;-83
2024/03/15 05:05:14;;;;;;;3.25;1.95;;;;;;;8.47;100.00;98416.59;5080540;28;20245;-84
2024/03/15 05:07:41;;;;;;;3.80;2.15;;;;;;;8.62;100.00;98419.19;5085687;22;20043;-56
2024/03/15 05:10:06;;;;;;;4.78;2.50;;;;;;;8.69;100.00;98419.19;5070647;28;20020;-56
2024/03/15 05:12:33;;;;;;;7.70;2.05;;;;;;;8.66;100.00;98414.22;5067447;28;20036;-56
2024/03/15 05:14:58;;;;;;;4.70;1.98;;;;;;;8.62;100.00;98427.28;5065079;28;20405;-56
2024/03/15 05:17:24;;;;;;;4.15;2.47;;;;;;;8.62;100.00;98429.09;5049370;28;20021;-56
2024/03/15 05:19:49;;;;;;;3.88;2.10;;;;;;;8.66;100.00;98436.59;5052559;28;20020;-56
2024/03/15 05:22:14;;;;;;;5.20;2.40;;;;;;;8.50;100.00;98428.84;5055513;28;20028;-56
2024/03/15 05:24:40;;;;;;;4.57;2.58;;;;;;;8.37;100.00;98434.97;5036927;28;20483;-56
2024/03/15 05:27:05;;;;;;;4.93;2.38;;;;;;;8.26;100.00;98428.28;5046824;28;20029;-56
2024/03/15 05:29:31;;;;;;;3.97;2.30;;;;;;;8.13;100.00;98441.66;5048026;28;20376;-56
2024/03/15 05:31:57;;;;;;;4.78;2.67;;;;;;;7.99;100.00;98431.81;5052594;28;20064;-57
2024/03/15 05:34:22;;;;;;;6.57;3.50;;;;;;;7.98;100.00;98447.13;5047613;28;20017;-56
2024/03/15 05:36:48;;;;;;;4.47;2.88;;;;;;;7.88;100.00;98455.53;5048848;28;20099;-56
2024/03/15 05:39:13;;;;;;;4.65;2.58;;;;;;;7.85;100.00;98455.13;5053372;28;20111;-56
2024/03/15 05:41:39;;;;;;;4.72;3.00;;;;;;;7.77;100.00;98452.56;5033485;28;20893;-56
2024/03/15 05:44:04;;;;;;;10.05;3.05;;;;;;;7.82;100.00;98467.09;5053474;28;20421;-56
2024/03/15 05:46:31;;;;;;;6.60;2.83;;;;;;;7.70;100.00;98449.78;5045682;28;20024;-56
2024/03/15 05:48:57;;;;;;;6.97;2.88;;;;;;;7.83;100.00;98470.63;5048969;28;20017;-56
2024/03/15 05:51:23;;;;;;;5.10;2.90;;;;;;;7.71;100.00;98470.34;5042639;28;20377;-56
2024/03/15 05:53:48;;;;;;;5.50;2.90;;;;;;;7.69;100.00;98473.19;5058339;28;20028;-56
2024/03/15 05:56:14;;;;;;;3.95;2.33;;;;;;;7.88;100.00;98478.97;5047953;28;20123;-56
2024/03/15 05:58:40;;;;;;;6.50;2.50;;;;;;;8.19;100.00;98466.97;5048776;28;20119;-56
2024/03/15 06:01:06;;;;;;;5.90;2.40;;;;;;;8.30;100.00;98474.53;5042244;28;20461;-56
2024/03/15 06:03:31;;;;;;;5.18;2.40;;;;;;;8.25;100.00;98474.28;5047919;28;20028;-56
2024/03/15 06:05:58;;;;;;;6.97;2.78;;;;;;;8.19;100.00;98480.47;5046967;28;20037;-56
2024/03/15 06:08:26;;;;;;;6.70;2.65;;;;;;;8.09;100.00;98481.63;5043753;28;20498;-57
2024/03/15 06:10:53;;;;;;;7.28;2.45;;;;;;;8.10;100.00;98490.56;5045883;28;20455;-56
2024/03/15 06:13:19;;;;;;;5.85;2.42;;;;;;;8.08;100.00;98484.53;5050342;28;20032;-56
2024/03/15 06:15:45;;;;;;;4.07;2.47;;;;;;;8.06;100.00;98494.66;5046429;28;20025;-56
2024/03/15 06:18:10;;;;;;;6.22;2.22;;;;;;;8.17;100.00;98490.59;5050056;28;20112;-56
2024/03/15 06:20:36;;;;;;;7.75;2.30;;;;;;;8.19;100.00;98483.97;5058815;28;20048;-56
2024/03/15 06:23:02;;;;;;;4.68;2.53;;;;;;;8.58;100.00;98487.19;5050385;28;20377;-56
2024/03/15 06:25:28;;;;;;;3.92;2.20;;;;;;;9.03;100.00;98487.63;5052285;28;20481;-56
2024/03/15 06:27:53;;;;;;;10.85;2.85;;;;;;;9.36;100.00;98469.66;5058691;28;20044;-56
2024/03/15 06:30:18;;;;;;;9.60;2.53;;;;;;;9.70;100.00;98475.16;5054320;28;20180;-56
2024/03/15 06:32:44;;;;;;;5.50;2.78;;;;;;;10.13;100.00;98469.34;5055330;28;20032;-56
2024/03/15 06:35:19;;;;;;;5.95;2.47;;;;;;;10.99;100.00;98469.19;5049306;28;20465;-56
2024/03/15 06:37:53;;;;;;;5.30;2.47;;;;;;;12.63;100.00;98453.84;5049989;28;20033;-56
2024/03/15 06:40:19;;;;;;;6.00;2.38;;;;;;;14.43;100.00;98451.31;5034353;28;20028;-56
2024/03/15 06:45:44;;;;;;;4.60;2.30;;;;;;;16.45;100.00;98451.13;5047733;28;20677;-57
2024/03/15 06:48:17;;;;;;;8.45;2.53;;;;;;;15.25;100.00;98444.94;5051607;28;20048;-57
2024/03/15 06:50:48;;;;;;;5.18;2.35;;;;;;;15.03;100.00;98461.09;5046842;28;20945;-57
2024/03/15 06:53:16;;;;;;;4.93;2.60;;;;;;;14.93;100.00;98453.53;5057507;28;20029;-57
2024/03/15 06:55:43;;;;;;;5.82;2.40;;;;;;;14.75;100.00;98459.97;5049781;28;20025;-57
2024/03/15 06:58:09;;;;;;;7.75;2.40;;;;;;;14.35;100.00;98462.56;5048916;28;20028;-57
2024/03/15 07:00:35;;;;;;;7.25;2.60;;;;;;;14.68;100.00;98467.44;5047470;28;20029;-57
2024/03/15 07:03:01;;;;;;;5.32;2.67;;;;;;;13.86;100.00;98465.47;5052573;28;20025;-57
2024/03/15 07:05:28;;;;;;;6.13;2.88;;;;;;;13.88;100.00;98470.66;5052446;28;20071;-57
2024/03/15 07:07:53;;;;;;;6.78;2.75;;;;;;;13.33;100.00;98466.19;5046409;28;20029;-57
2024/03/15 07:10:19;;;;;;;7.28;3.00;;;;;;;13.65;100.00;98476.84;5053798;28;20025;-57
2024/03/15 07:12:46;;;;;;;4.97;2.60;;;;;;;15.66;100.00;98468.31;5048112;28;20052;-57
2024/03/15 07:15:15;;;;;;;6.68;2.97;;;;;;;17.14;100.00;98467.13;5048591;28;20214;-57
2024/03/15 07:17:43;;;;;;;7.57;2.80;;;;;;;19.59;100.00;98462.72;5045872;28;20107;-57
2024/03/15 07:20:12;;;;;;;7.28;3.17;;;;;;;21.47;84.41;98460.13;5051225;28;20419;-57
2024/03/15 07:22:38;;;;;;;8.85;2.20;;;;;;;22.86;74.15;98469.00;5042920;28;20028;-57
2024/03/15 07:25:06;;;;;;;5.50;2.60;;;;;;;23.40;70.07;98456.81;5055398;28;20037;-57
2024/03/15 07:27:32;;;;;;;10.15;3.97;;;;;;;23.29;67.90;98455.31;5043605;28;20029;-63
2024/03/15 07:29:59;;;;;;;9.63;5.40;;;;;;;23.55;64.46;98466.00;5049015;28;20022;-63
2024/03/15 07:32:24;;;;;;;10.52;4.43;;;;;;;24.69;62.29;98470.34;5046089;28;20555;-65
2024/03/15 07:34:50;;;;;;;6.70;3.85;;;;;;;25.54;59.54;98470.09;5050927;28;20028;-65
2024/03/15 07:37:16;;;;;;;9.70;3.35;;;;;;;26.11;57.61;98466.91;5054613;28;20112;-64
2024/03/15 07:39:42;;;;;;;12.68;4.80;;;;;;;25.21;55.52;98463.88;5054188;28;20024;-64
2024/03/15 07:42:09;;;;;;;11.00;4.28;;;;;;;26.66;53.65;98475.00;5053910;28;20111;-63
2024/03/15 07:44:35;;;;;;;12.35;5.03;;;;;;;28.66;50.49;98466.28;5055886;28;20083;-65
2024/03/15 07:47:02;;;;;;;11.70;5.05;;;;;;;29.06;47.65;98469.63;5044619;28;20033;-64
2024/03/15 07:49:28;;;;;;;11.20;4.38;;;;;;;29.67;46.21;98472.13;5052450;28;20020;-63
2024/03/15 07:51:56;;;;;;;12.30;3.80;;;;;;;30.69;44.96;98473.59;5050382;28;20089;-64
2024/03/15 07:54:21;;;;;;;5.70;3.00;;;;;;;30.12;43.67;98475.06;5043842;28;20514;-64
2024/03/15 07:56:47;;;;;;;6.15;3.05;;;;;;;31.57;42.49;98473.38;5046581;28;20024;-64
2024/03/15 07:59:13;;;;;;;6.38;2.85;;;;;;;31.68;41.79;98471.75;5050078;28;20037;-64
2024/03/15 08:01:41;;;;;;;5.25;2.22;;;;;;;31.18;41.81;98468.13;5047041;28;20025;-64
2024/03/15 08:04:08;;;;;;;6.53;2.50;;;;;;;30.07;42.20;98483.66;5052868;28;20047;-64
2024/03/15 08:06:35;;;;;;;6.45;2.90;;;;;;;29.61;43.19;98479.84;5034227;28;20040;-64
2024/03/15 08:09:01;;;;;;;4.93;2.60;;;;;;;29.64;43.14;98478.34;5052851;28;20028;-64
2024/03/15 08:11:28;;;;;;;7.03;1.92;;;;;;;29.56;42.05;98476.44;5046233;28;20091;-64
2024/03/15 08:13:54;;;;;;;5.35;1.50;;;;;;;29.27;43.44;98480.84;5053395;28;20148;-64
2024/03/15 08:16:23;;;;;;;3.97;1.90;;;;;;;29.10;42.31;98469.78;5051760;28;20530;-64
2024/03/15 08:18:48;;;;;;;2.70;1.50;;;;;;;28.10;43.92;98478.09;5051275;28;20403;-63
2024/03/15 08:21:15;;;;;;;2.75;1.35;;;;;;;26.24;45.89;98482.66;5041640;28;20116;-64
2024/03/15 08:23:42;;;;;;;7.75;1.80;;;;;;;26.60;46.93;98477.09;5055417;28;20104;-64
2024/03/15 08:26:09;;;;;;;3.15;1.38;;;;;;;26.50;47.26;98470.94;5051737;28;20399;-63
2024/03/15 08:28:36;;;;;;;3.80;1.55;;;;;;;26.81;46.33;98488.47;5046638;28;20021;-63
2024/03/15 08:31:01;;;;;;;6.00;1.58;;;;;;;26.49;46.71;98474.84;5051723;28;20033;-63
2024/03/15 08:33:26;;;;;;;3.60;1.98;;;;;;;26.15;48.42;98479.84;5050566;28;20123;-63
2024/03/15 08:35:52;;;;;;;3.53;1.60;;;;;;;26.02;49.11;98481.53;5056175;28;20483;-64
2024/03/15 08:38:17;;;;;;;4.03;1.20;;;;;;;25.28;49.39;98478.97;5046407;28;20021;-63
2024/03/15 08:40:43;;;;;;;2.05;1.40;;;;;;;25.86;48.75;98474.69;5046213;28;20086;-63
2024/03/15 08:43:10;;;;;;;4.45;1.63;;;;;;;25.36;49.83;98480.16;5052057;28;20104;-63
2024/03/15 08:45:36;;;;;;;3.67;1.58;;;;;;;26.74;48.79;98459.53;5050612;28;20060;-63
2024/03/15 08:48:03;;;;;;;1.88;1.40;;;;;;;27.31;47.54;98459.63;5051067;28;20067;-63
2024/03/15 08:50:32;;;;;;;2.45;1.27;;;;;;;28.09;46.67;98462.56;5056172;28;20028;-63
2024/03/15 08:52:58;;;;;;;4.18;1.65;;;;;;;29.09;45.30;98465.38;5050152;28;20377;-63
2024/03/15 08:55:23;;;;;;;3.92;1.77;;;;;;;30.49;43.11;98463.28;5049679;28;20039;-63
2024/03/15 08:57:48;;;;;;;1.83;1.30;;;;;;;29.71;44.21;98464.72;5052920;28;20028;-63
2024/03/15 09:00:14;;;;;;;3.00;1.52;;;;;;;29.12;44.66;98461.91;5055203;28;20105;-63
2024/03/15 09:02:40;;;;;;;3.03;1.42;;;;;;;30.42;43.21;98469.44;5051883;28;20021;-63
2024/03/15 09:05:08;;;;;;;2.83;1.40;;;;;;;30.34;42.54;98471.16;5051049;28;20434;-63
2024/03/15 09:07:38;;;;;;;3.50;1.50;;;;;;;29.81;42.85;98478.25;5052932;28;20048;-63
2024/03/15 09:10:16;;;;;;;4.53;1.67;;;;;;;29.95;43.17;98472.44;5050298;28;20032;-59
2024/03/15 09:12:45;;;;;;;2.15;1.40;;;;;;;30.71;42.28;98471.28;5052573;28;20029;-63
2024/03/15 09:15:12;;;;;;;5.03;1.48;;;;;;;29.64;43.30;98462.47;5029497;28;20049;-63
2024/03/15 09:17:41;;;;;;;2.72;1.30;;;;;;;28.26;45.31;98458.94;5048575;28;20112;-63
2024/03/15 09:20:18;;;;;;;3.00;1.02;;;;;;;30.58;42.50;98461.22;5050085;28;20036;-63
2024/03/15 09:22:45;;;;;;;2.45;1.30;;;;;;;31.08;41.33;98465.78;5046139;28;20021;-63
2024/03/15 09:25:18;;;;;;;4.55;1.50;;;;;;;30.53;41.75;98453.06;5046182;28;20033;-64
2024/03/15 09:27:48;;;;;;;1.80;1.02;;;;;;;30.99;41.75;98459.47;5048348;28;20032;-64
2024/03/15 09:30:17;;;;;;;3.90;1.52;;;;;;;27.45;45.00;98473.41;5058103;28;20378;-63
2024/03/15 09:32:48;;;;;;;5.63;1.50;;;;;;;29.56;43.85;98468.91;5046483;28;20068;-64
2024/03/15 09:35:14;;;;;;;3.33;1.42;;;;;;;28.05;44.79;98461.56;5050070;28;20029;-64
2024/03/15 09:37:48;;;;;;;2.50;1.40;;;;;;;25.22;48.32;98485.72;5046680;28;20033;-64
2024/03/15 09:40:17;;;;;;;5.75;1.45;;;;;;;24.10;51.81;98479.34;5025747;28;20738;-63
2024/03/15 09:42:48;;;;;;;2.15;1.20;;;;;;;23.97;52.75;98475.38;5041122;28;20040;-63
2024/03/15 09:45:17;;;;;;;4.35;1.80;;;;;;;23.93;52.60;98477.13;5052469;28;20043;-63
2024/03/15 09:47:48;;;;;;;3.10;1.52;;;;;;;22.80;55.32;98472.94;5025128;28;20029;-63
2024/03/15 09:50:16;;;;;;;1.77;1.10;;;;;;;22.26;57.18;98474.78;5041531;28;20025;-63
2024/03/15 09:52:42;;;;;;;2.90;1.40;;;;;;;22.20;59.97;98478.69;5050939;28;20032;-63
2024/03/15 09:55:13;;;;;;;4.30;1.60;;;;;;;21.11;63.38;98476.75;5044667;28;20263;-63
2024/03/15 09:57:43;;;;;;;3.38;1.40;;;;;;;21.70;64.44;98460.56;5049368;28;20153;-63
2024/03/15 10:00:14;;;;;;;2.83;1.10;;;;;;;21.73;65.40;98474.59;5044446;28;20159;-63
2024/03/15 10:02:42;;;;;;;2.17;1.20;;;;;;;21.77;66.29;98481.19;5048920;28;20114;-63
2024/03/15 10:05:10;;;;;;;3.08;1.42;;;;;;;20.72;69.37;98471.94;5048320;28;20497;-63
2024/03/15 10:07:36;;;;;;;3.53;1.20;;;;;;;19.62;77.11;98470.44;5051660;28;20035;-63
2024/03/15 10:10:04;;;;;;;1.73;1.00;;;;;;;19.08;88.63;98475.47;5048883;28;20030;-63
2024/03/15 10:12:29;;;;;;;1.65;1.13;;;;;;;19.29;100.00;98482.69;5048593;28;20115;-63
2024/03/15 10:14:55;;;;;;;7.40;1.58;;;;;;;19.31;100.00;98479.66;5042536;28;20112;-63
2024/03/15 10:17:20;;;;;;;3.10;1.40;;;;;;;19.09;100.00;98486.13;5038475;28;20190;-63
2024/03/15 10:19:46;;;;;;;3.80;1.25;;;;;;;19.19;100.00;98479.88;5046639;28;20020;-63
2024/03/15 10:22:11;;;;;;;2.25;1.08;;;;;;;19.17;100.00;98471.91;5042433;28;20123;-63
2024/03/15 10:24:38;;;;;;;6.78;1.20;;;;;;;18.95;100.00;98480.31;5047263;28;20124;-63
2024/03/15 10:27:10;;;;;;;3.13;1.30;;;;;;;18.59;100.00;98488.28;5041635;28;20029;-63
2024/03/15 10:29:37;;;;;;;2.75;1.00;;;;;;;17.57;100.00;98501.00;5042332;28;20028;-60
2024/03/15 10:32:02;;;;;;;0.93;0.70;;;;;;;17.46;100.00;98491.03;5043041;28;20481;-59
2024/03/15 10:34:30;;;;;;;3.95;0.70;;;;;;;17.26;100.00;98486.13;5044940;28;20040;-59
2024/03/15 10:36:55;;;;;;;1.50;0.60;;;;;;;16.80;100.00;98497.28;5041278;28;20036;-59
2024/03/15 10:39:23;;;;;;;0.57;0.40;;;;;;;16.52;100.00;98487.28;5049457;28;20016;-59
2024/03/15 10:41:49;;;;;;;1.55;0.52;;;;;;;16.81;100.00;98495.38;5046207;28;20045;-59
2024/03/15 10:44:16;;;;;;;0.80;0.43;;;;;;;16.78;100.00;98490.44;5042226;28;20108;-59
2024/03/15 10:46:41;;;;;;;1.98;0.57;;;;;;;17.20;100.00;98495.38;5046130;28;20031;-60
2024/03/15 10:49:13;;;;;;;2.05;0.65;;;;;;;16.94;100.00;98497.75;5040931;28;20025;-60
2024/03/15 10:51:41;;;;;;;3.47;0.63;;;;;;;16.51;100.00;98488.38;5051523;28;20020;-60
2024/03/15 10:54:15;;;;;;;0.98;0.50;;;;;;;16.79;100.00;98498.38;5048096;28;20091;-63
2024/03/15 10:56:41;;;;;;;0.52;0.40;;;;;;;17.18;100.00;98501.06;5046587;28;20121;-63
2024/03/15 10:59:08;;;;;;;1.00;0.50;;;;;;;16.95;100.00;98504.03;5050923;28;20037;-63
2024/03/15 11:01:34;;;;;;;1.60;0.50;;;;;;;16.92;100.00;98505.38;5050076;28;21416;-63
2024/03/15 11:04:01;;;;;;;0.80;0.60;;;;;;;16.67;100.00;98503.06;5060325;28;20039;-63
2024/03/15 11:06:44;;;;;;;2.67;0.70;;;;;;;16.58;100.00;98496.38;5052363;28;20030;-63
2024/03/15 11:09:23;;;;;;;2.80;0.80;;;;;;;16.76;100.00;98507.03;5049706;28;20377;-63
2024/03/15 11:11:58;;;;;;;;;;;;;;;17.16;100.00;98496.94;5047433;28;20499;-63
2024/03/15 11:14:24;;;;;;;1.10;0.40;;;;;;;17.00;100.00;98496.75;5045940;28;19928;-63
2024/03/15 11:16:56;;;;;;;1.27;0.60;;;;;;;17.16;100.00;98499.66;5047890;28;20029;-63
2024/03/15 11:19:22;;;;;;;1.95;0.60;;;;;;;17.53;100.00;98502.63;5053529;28;20028;-63
2024/03/15 11:21:47;;;;;;;1.15;0.57;;;;;;;17.68;100.00;98491.00;5053559;28;20025;-63
2024/03/15 11:24:16;;;;;;;0.98;0.43;;;;;;;17.68;100.00;98491.84;5049652;28;20473;-63
2024/03/15 11:26:41;;;;;;;0.77;0.50;;;;;;;17.69;100.00;98489.94;5047464;28;20111;-63
2024/03/15 11:29:19;;;;;;;2.10;0.60;;;;;;;17.66;100.00;98502.22;5057859;28;20113;-63
2024/03/15 11:31:45;;;;;;;1.38;0.68;;;;;;;17.82;100.00;98486.81;5046656;28;20025;-63